Time;durP1;ratioP1;P1;durP2;ratioP2;P2;SDS_P1;SDS_P2;PMS_P1;PMS_P2;Temp;Humidity;BMP_temperature;BMP_pressure;BME280_temperature;BME280_humidity;BME280_pressure;Samples;Min_cycle;Max_cycle;Signal;HPM_P1;HPM_P2
2022/08/31 00:05:20;;;;;;;3.43;1.47;;;;;;;23.23;53.61;100345.34;5001972;28;20997;-52
2022/08/31 00:07:46;;;;;;;23.10;1.63;;;;;;;23.21;53.46;100350.03;5007610;28;20457;-52
2022/08/31 00:10:14;;;;;;;1.97;1.40;;;;;;;22.96;54.11;100351.13;5000659;28;20454;-52
2022/08/31 00:12:42;;;;;;;1.43;1.30;;;;;;;22.83;54.45;100363.91;5004848;28;21002;-52
2022/08/31 00:15:11;;;;;;;1.20;1.10;;;;;;;22.90;54.86;100354.31;5008993;28;21024;-52
2022/08/31 00:17:38;;;;;;;3.50;1.47;;;;;;;22.93;55.03;100356.78;5004331;28;20446;-52
2022/08/31 00:20:07;;;;;;;1.57;0.90;;;;;;;22.88;54.73;100358.97;4996223;28;20453;-52
2022/08/31 00:22:53;;;;;;;1.43;1.33;;;;;;;23.00;54.68;100348.03;4986820;28;20449;-52
2022/08/31 00:25:22;;;;;;;1.20;1.07;;;;;;;22.84;55.04;100352.94;4987413;28;20868;-52
2022/08/31 00:27:49;;;;;;;1.43;1.07;;;;;;;22.70;55.51;100356.69;4999834;28;20454;-52
2022/08/31 00:30:15;;;;;;;2.70;1.17;;;;;;;22.75;55.15;100345.50;5006322;28;20947;-52
2022/08/31 00:32:42;;;;;;;1.40;0.70;;;;;;;22.66;55.47;100347.09;5006705;28;20964;-52
2022/08/31 00:35:08;;;;;;;0.80;0.80;;;;;;;22.72;55.50;100348.44;5006392;28;20465;-52
2022/08/31 00:37:35;;;;;;;1.23;0.90;;;;;;;22.82;55.12;100343.19;5006669;28;20452;-52
2022/08/31 00:40:02;;;;;;;4.33;1.23;;;;;;;22.63;55.80;100344.63;5000939;28;20452;-52
2022/08/31 00:42:29;;;;;;;2.10;1.20;;;;;;;22.60;55.81;100339.41;4999897;28;20457;-52
2022/08/31 00:44:55;;;;;;;3.43;1.70;;;;;;;22.63;55.90;100338.34;5005368;28;20489;-52
2022/08/31 00:47:22;;;;;;;1.63;1.17;;;;;;;22.67;55.57;100340.69;5006268;28;20804;-52
2022/08/31 00:49:50;;;;;;;2.30;1.23;;;;;;;22.68;55.79;100336.13;5001491;28;20452;-52
2022/08/31 00:52:38;;;;;;;1.53;0.90;;;;;;;22.60;56.18;100331.28;4993619;28;20460;-52
2022/08/31 00:55:25;;;;;;;1.83;1.73;;;;;;;22.59;56.06;100336.84;5001581;28;20856;-52
2022/08/31 00:57:54;;;;;;;3.10;1.83;;;;;;;22.64;55.68;100343.66;4988753;28;20952;-52
2022/08/31 01:00:25;;;;;;;3.23;1.00;;;;;;;22.46;56.51;100337.78;4989610;28;20549;-52
2022/08/31 01:02:53;;;;;;;26.17;1.27;;;;;;;22.44;56.60;100341.59;4993353;28;20452;-52
2022/08/31 01:05:19;;;;;;;3.73;1.07;;;;;;;22.54;56.19;100350.75;5006154;28;21020;-52
2022/08/31 01:07:48;;;;;;;0.90;0.80;;;;;;;22.70;55.82;100345.84;5009098;28;20457;-52
2022/08/31 01:10:18;;;;;;;0.80;0.73;;;;;;;22.68;56.14;100352.38;4985753;28;20954;-52
2022/08/31 01:12:46;;;;;;;4.40;2.03;;;;;;;22.47;56.97;100357.59;4999511;28;20454;-52
2022/08/31 01:15:16;;;;;;;3.83;1.53;;;;;;;22.49;56.74;100363.81;5004723;28;20933;-52
2022/08/31 01:17:47;;;;;;;0.97;0.80;;;;;;;22.40;56.86;100356.38;5006161;28;20459;-52
2022/08/31 01:20:23;;;;;;;1.90;1.47;;;;;;;22.28;57.14;100360.88;4999107;28;20476;-52
2022/08/31 01:23:11;;;;;;;5.13;1.93;;;;;;;22.29;57.48;100357.19;4993286;28;20445;-52
2022/08/31 01:25:41;;;;;;;4.77;1.50;;;;;;;22.16;57.87;100364.50;4999636;28;20497;-52
2022/08/31 01:28:09;;;;;;;2.20;2.10;;;;;;;22.17;57.91;100355.41;4987691;28;20471;-52
2022/08/31 01:30:37;;;;;;;1.63;1.53;;;;;;;22.20;57.84;100352.47;4999490;28;20455;-53
2022/08/31 01:33:04;;;;;;;2.07;1.40;;;;;;;22.26;57.65;100357.44;5010398;28;20451;-52
2022/08/31 01:35:32;;;;;;;3.03;0.93;;;;;;;22.31;57.77;100357.06;4998956;28;20465;-52
2022/08/31 01:38:00;;;;;;;4.10;1.53;;;;;;;22.13;58.17;100364.75;5004592;28;20464;-52
2022/08/31 01:40:36;;;;;;;3.90;1.50;;;;;;;22.31;57.80;100367.91;5005941;28;20449;-52
2022/08/31 01:43:02;;;;;;;1.53;1.43;;;;;;;22.46;57.19;100364.00;5002241;28;20452;-52
2022/08/31 01:45:29;;;;;;;2.33;1.57;;;;;;;22.57;56.65;100366.75;4998722;28;20476;-52
2022/08/31 01:47:58;;;;;;;0.90;0.70;;;;;;;22.64;56.41;100375.31;4993398;28;20466;-52
2022/08/31 01:50:25;;;;;;;6.63;1.47;;;;;;;22.70;56.38;100378.38;5002779;28;20457;-52
2022/08/31 01:52:51;;;;;;;2.40;1.43;;;;;;;22.69;56.24;100371.25;5002655;28;20824;-52
2022/08/31 01:55:18;;;;;;;1.83;1.73;;;;;;;22.87;55.67;100385.22;4999126;28;20476;-52
2022/08/31 01:57:44;;;;;;;16.23;1.47;;;;;;;22.96;55.54;100383.66;5002365;28;20458;-52
2022/08/31 02:00:11;;;;;;;6.10;1.60;;;;;;;22.92;55.81;100388.47;4999118;28;20449;-52
2022/08/31 02:02:38;;;;;;;5.27;1.67;;;;;;;22.88;55.93;100391.50;5005637;28;20464;-52
2022/08/31 02:05:07;;;;;;;1.20;1.10;;;;;;;22.89;56.71;100395.94;5004065;28;20468;-52
2022/08/31 02:07:34;;;;;;;1.00;0.90;;;;;;;22.87;56.56;100400.63;5012854;28;20518;-52
2022/08/31 02:10:00;;;;;;;1.20;1.10;;;;;;;22.76;56.18;100404.16;5005070;28;20449;-53
2022/08/31 02:12:27;;;;;;;1.30;1.20;;;;;;;22.67;57.19;100397.59;5009390;28;20453;-52
2022/08/31 02:14:53;;;;;;;1.33;1.00;;;;;;;22.83;56.22;100394.59;5007477;28;20468;-52
2022/08/31 02:17:20;;;;;;;1.20;1.10;;;;;;;22.69;56.74;100395.63;5002968;28;20493;-52
2022/08/31 02:19:46;;;;;;;1.23;1.00;;;;;;;22.86;55.76;100405.19;5004806;28;20947;-52
2022/08/31 02:22:12;;;;;;;1.23;1.13;;;;;;;22.91;55.63;100394.00;4983330;28;20453;-52
2022/08/31 02:24:39;;;;;;;1.60;1.50;;;;;;;22.67;57.05;100403.03;5007524;28;20476;-52
2022/08/31 02:27:05;;;;;;;1.50;1.40;;;;;;;22.70;56.74;100401.91;5002271;28;20488;-52
2022/08/31 02:29:32;;;;;;;1.57;1.47;;;;;;;22.77;55.97;100398.63;5004006;28;20453;-52
2022/08/31 02:31:59;;;;;;;3.23;1.03;;;;;;;22.79;56.31;100405.78;5009316;28;20457;-52
2022/08/31 02:34:25;;;;;;;1.30;1.20;;;;;;;22.90;55.43;100406.69;5007943;28;20503;-52
2022/08/31 02:36:51;;;;;;;1.73;1.30;;;;;;;23.14;54.97;100406.59;5002350;28;20847;-53
2022/08/31 02:39:18;;;;;;;1.23;1.13;;;;;;;22.81;55.84;100406.50;5003529;28;20825;-52
2022/08/31 02:41:45;;;;;;;1.77;1.67;;;;;;;23.13;54.61;100404.88;5009222;28;20949;-52
2022/08/31 02:44:12;;;;;;;3.80;1.33;;;;;;;22.63;56.33;100409.66;5008254;28;21022;-52
2022/08/31 02:46:39;;;;;;;1.13;1.03;;;;;;;22.74;56.11;100415.09;5002026;28;20492;-52
2022/08/31 02:49:05;;;;;;;1.50;1.40;;;;;;;22.67;56.32;100408.44;5003104;28;20461;-52
2022/08/31 02:51:32;;;;;;;2.60;2.03;;;;;;;22.62;56.43;100409.78;4996532;28;20453;-52
2022/08/31 02:53:58;;;;;;;6.00;1.20;;;;;;;22.79;56.74;100413.91;5008107;28;20472;-52
2022/08/31 02:56:25;;;;;;;2.73;1.43;;;;;;;23.14;54.88;100409.31;5001593;28;20449;-52
2022/08/31 02:58:53;;;;;;;1.50;1.30;;;;;;;22.90;55.26;100414.84;5002712;28;20824;-52
2022/08/31 03:01:22;;;;;;;0.70;0.70;;;;;;;22.85;55.67;100405.31;5001491;28;20453;-52
2022/08/31 03:03:49;;;;;;;1.20;1.07;;;;;;;22.86;55.80;100407.03;5002021;28;20885;-52
2022/08/31 03:06:17;;;;;;;1.90;1.53;;;;;;;22.75;56.53;100403.31;5011501;28;20499;-52
2022/08/31 03:08:45;;;;;;;1.90;1.33;;;;;;;22.77;56.48;100403.19;5014036;28;20539;-52
2022/08/31 03:11:12;;;;;;;7.33;1.53;;;;;;;22.67;56.36;100402.16;5002583;28;20801;-52
2022/08/31 03:13:39;;;;;;;1.30;1.20;;;;;;;23.08;55.66;100396.25;5001572;28;20973;-52
2022/08/31 03:16:06;;;;;;;1.23;1.13;;;;;;;22.78;56.40;100407.63;5007203;28;20457;-52
2022/08/31 03:18:32;;;;;;;3.53;1.63;;;;;;;23.16;55.14;100415.47;5008567;28;20535;-52
2022/08/31 03:20:59;;;;;;;1.33;1.23;;;;;;;22.74;56.32;100412.38;4995147;28;20457;-52
2022/08/31 03:23:25;;;;;;;1.87;1.77;;;;;;;22.64;56.71;100410.53;4995045;28;20942;-52
2022/08/31 03:25:52;;;;;;;1.90;1.80;;;;;;;22.53;57.13;100408.63;4994898;28;20454;-52
2022/08/31 03:28:18;;;;;;;1.20;1.10;;;;;;;22.69;56.80;100411.88;4995359;28;20459;-52
2022/08/31 03:30:45;;;;;;;2.00;0.90;;;;;;;22.54;57.55;100410.38;4995171;28;20792;-52
2022/08/31 03:33:12;;;;;;;1.60;1.50;;;;;;;22.50;57.68;100405.31;4995021;28;20460;-52
2022/08/31 03:35:43;;;;;;;2.33;1.33;;;;;;;22.21;58.63;100407.50;4994908;28;20473;-52
2022/08/31 03:38:11;;;;;;;1.30;1.20;;;;;;;22.32;58.35;100407.53;4995009;28;20446;-52
2022/08/31 03:40:42;;;;;;;5.90;1.10;;;;;;;22.41;57.83;100415.84;4994890;28;20814;-52
2022/08/31 03:43:10;;;;;;;1.30;1.20;;;;;;;22.95;56.83;100415.31;4994745;28;20457;-51
2022/08/31 03:45:39;;;;;;;23.43;1.43;;;;;;;22.54;57.31;100410.38;4994617;28;20543;-52
2022/08/31 03:48:06;;;;;;;2.57;1.53;;;;;;;22.41;58.32;100425.81;4994724;28;20498;-52
2022/08/31 03:50:38;;;;;;;2.33;1.10;;;;;;;22.42;58.03;100419.41;4994588;28;20847;-52
2022/08/31 03:53:06;;;;;;;8.90;1.80;;;;;;;22.29;58.46;100421.31;4994462;28;20489;-52
2022/08/31 03:55:34;;;;;;;2.30;1.40;;;;;;;22.46;58.03;100426.31;4994722;28;20847;-52
2022/08/31 03:58:00;;;;;;;1.73;1.33;;;;;;;22.81;57.38;100423.63;4994575;28;20449;-52
2022/08/31 04:00:28;;;;;;;3.23;1.13;;;;;;;23.01;56.19;100425.69;4994531;28;20450;-51
2022/08/31 04:02:58;;;;;;;5.37;1.50;;;;;;;22.68;57.06;100428.28;4994276;28;20453;-52
2022/08/31 04:05:26;;;;;;;1.83;1.73;;;;;;;22.48;57.91;100432.53;4994290;28;20517;-52
2022/08/31 04:07:53;;;;;;;2.80;1.17;;;;;;;22.73;57.09;100435.06;5004658;28;20489;-52
2022/08/31 04:10:21;;;;;;;1.40;1.30;;;;;;;22.76;57.21;100439.41;4994359;28;20460;-52
2022/08/31 04:12:49;;;;;;;1.13;1.03;;;;;;;22.67;57.84;100431.97;4994364;28;20460;-52
2022/08/31 04:15:17;;;;;;;1.43;1.20;;;;;;;22.53;58.49;100441.16;4994163;28;20469;-52
2022/08/31 04:17:46;;;;;;;1.47;1.37;;;;;;;22.37;58.85;100432.47;4993979;28;20453;-52
2022/08/31 04:20:13;;;;;;;3.63;1.13;;;;;;;22.41;59.12;100436.66;4994254;28;20448;-53
2022/08/31 04:22:39;;;;;;;2.47;1.80;;;;;;;22.29;59.39;100443.84;4994136;28;20449;-52
2022/08/31 04:25:09;;;;;;;2.07;1.47;;;;;;;22.16;60.03;100441.19;4993807;28;20476;-52
2022/08/31 04:27:37;;;;;;;17.67;2.07;;;;;;;21.95;60.56;100442.78;4993331;28;20504;-52
2022/08/31 04:30:06;;;;;;;1.90;1.37;;;;;;;22.16;59.89;100443.91;4993814;28;20449;-52
2022/08/31 04:32:34;;;;;;;3.80;0.83;;;;;;;22.33;59.29;100439.06;4993995;28;20453;-52
2022/08/31 04:35:03;;;;;;;4.63;1.13;;;;;;;22.39;58.45;100446.75;4993855;28;20469;-52
2022/08/31 04:37:30;;;;;;;5.83;1.27;;;;;;;21.77;61.46;100447.66;4993842;28;20445;-52
2022/08/31 04:39:57;;;;;;;1.53;1.43;;;;;;;22.03;60.67;100455.72;4993787;28;21026;-52
2022/08/31 04:42:28;;;;;;;1.50;1.40;;;;;;;22.06;60.74;100460.94;4993743;28;20500;-51
2022/08/31 04:44:55;;;;;;;1.00;0.80;;;;;;;21.88;61.69;100457.72;4993342;28;20481;-51
2022/08/31 04:47:21;;;;;;;4.60;2.10;;;;;;;21.83;61.88;100455.34;4993660;28;20500;-51
2022/08/31 04:49:48;;;;;;;7.77;1.23;;;;;;;21.74;62.41;100460.56;4993581;28;20480;-51
2022/08/31 04:52:14;;;;;;;1.30;1.20;;;;;;;21.83;62.28;100459.91;4993475;28;20970;-51
2022/08/31 04:54:41;;;;;;;2.67;1.90;;;;;;;21.86;62.52;100462.38;4993427;28;20470;-52
2022/08/31 04:57:07;;;;;;;1.53;1.43;;;;;;;21.92;62.45;100461.91;4993511;28;20450;-52
2022/08/31 04:59:34;;;;;;;14.23;2.10;;;;;;;21.56;64.00;100474.44;4993220;28;20446;-51
2022/08/31 05:02:02;;;;;;;2.20;1.43;;;;;;;21.42;64.84;100477.25;4993315;28;20460;-51
2022/08/31 05:04:30;;;;;;;1.77;1.67;;;;;;;21.67;64.21;100479.09;4993358;28;20524;-51
2022/08/31 05:06:57;;;;;;;1.43;1.33;;;;;;;21.37;65.54;100481.25;5002362;28;20550;-52
2022/08/31 05:09:23;;;;;;;3.73;1.47;;;;;;;21.41;65.88;100486.34;4993822;28;20972;-52
2022/08/31 05:11:51;;;;;;;3.37;1.63;;;;;;;21.37;66.16;100486.66;4993161;28;20457;-52
2022/08/31 05:14:20;;;;;;;20.37;1.43;;;;;;;21.55;65.82;100482.66;4993191;28;20473;-52
2022/08/31 05:16:47;;;;;;;6.30;2.70;;;;;;;21.66;65.33;100488.19;4993236;28;20468;-52
2022/08/31 05:19:14;;;;;;;0.87;0.87;;;;;;;21.54;66.53;100489.91;4993330;28;20540;-51
2022/08/31 05:21:42;;;;;;;2.27;2.10;;;;;;;21.20;68.28;100495.91;4992956;28;20464;-51
2022/08/31 05:24:21;;;;;;;2.00;1.83;;;;;;;21.51;67.46;100490.09;4993003;28;20497;-51
2022/08/31 05:26:50;;;;;;;1.27;1.17;;;;;;;21.21;68.21;100495.81;4992981;28;20501;-51
2022/08/31 05:29:20;;;;;;;2.70;1.57;;;;;;;21.46;67.19;100492.28;4992979;28;20460;-52
2022/08/31 05:31:47;;;;;;;2.20;1.53;;;;;;;21.34;67.77;100492.28;4993072;28;20456;-51
2022/08/31 05:34:19;;;;;;;2.00;1.90;;;;;;;21.33;68.39;100494.13;4992955;28;20477;-51
2022/08/31 05:36:51;;;;;;;2.20;2.10;;;;;;;21.37;68.75;100498.34;4992820;28;20445;-51
2022/08/31 05:39:18;;;;;;;5.70;2.27;;;;;;;21.00;68.90;100497.31;4992379;28;20460;-51
2022/08/31 05:41:46;;;;;;;1.63;1.53;;;;;;;20.84;70.07;100500.19;4992690;28;20453;-51
2022/08/31 05:44:14;;;;;;;11.57;1.80;;;;;;;20.79;70.13;100504.16;4992869;28;20485;-52
2022/08/31 05:46:41;;;;;;;4.13;2.20;;;;;;;20.66;71.04;100496.00;4991530;28;20495;-51
2022/08/31 05:49:08;;;;;;;1.67;1.10;;;;;;;20.83;70.38;100497.56;4992743;28;20537;-52
2022/08/31 05:51:37;;;;;;;13.93;2.10;;;;;;;20.96;70.38;100503.88;4992512;28;20480;-52
2022/08/31 05:54:05;;;;;;;1.87;1.77;;;;;;;20.91;70.96;100506.03;4992542;28;21022;-51
2022/08/31 05:56:31;;;;;;;2.50;1.23;;;;;;;20.83;71.01;100513.78;4992973;28;20454;-51
2022/08/31 05:58:58;;;;;;;1.80;1.70;;;;;;;20.88;71.12;100506.25;4992568;28;20959;-52
2022/08/31 06:01:33;;;;;;;1.07;0.97;;;;;;;20.77;71.62;100509.66;4992818;28;20457;-51
2022/08/31 06:04:00;;;;;;;5.60;2.90;;;;;;;20.67;72.09;100506.69;4992360;28;20504;-51
2022/08/31 06:06:27;;;;;;;4.50;2.60;;;;;;;20.97;71.30;100517.31;4997802;28;20460;-51
2022/08/31 06:08:54;;;;;;;3.97;2.07;;;;;;;21.16;70.54;100505.22;4997328;28;20453;-52
2022/08/31 06:11:24;;;;;;;1.53;1.43;;;;;;;20.78;72.17;100506.00;4992471;28;20964;-51
2022/08/31 06:13:53;;;;;;;2.07;1.97;;;;;;;20.60;72.68;100497.28;4992363;28;20484;-51
2022/08/31 06:16:21;;;;;;;1.70;1.60;;;;;;;20.73;72.47;100507.28;4992588;28;20454;-51
2022/08/31 06:18:52;;;;;;;1.40;1.13;;;;;;;20.76;72.64;100510.63;4992286;28;20454;-51
2022/08/31 06:21:30;;;;;;;1.67;1.57;;;;;;;20.67;72.77;100509.41;4992716;28;20445;-51
2022/08/31 06:23:58;;;;;;;5.87;1.07;;;;;;;20.81;72.56;100508.47;4992561;28;20580;-51
2022/08/31 06:26:27;;;;;;;2.23;2.10;;;;;;;20.59;73.50;100513.59;4992540;28;20939;-52
2022/08/31 06:28:56;;;;;;;1.97;1.80;;;;;;;20.63;73.82;100507.03;4992224;28;20449;-51
2022/08/31 06:31:28;;;;;;;1.23;1.03;;;;;;;20.81;72.70;100511.19;4992288;28;20481;-52
2022/08/31 06:33:56;;;;;;;1.53;1.43;;;;;;;20.65;73.63;100507.78;4992517;28;20516;-49
2022/08/31 06:36:25;;;;;;;25.27;1.80;;;;;;;20.87;72.94;100518.03;4992314;28;20460;-50
2022/08/31 06:38:55;;;;;;;11.53;2.20;;;;;;;20.60;73.76;100515.34;4992285;28;20445;-49
2022/08/31 06:41:27;;;;;;;6.07;2.53;;;;;;;20.66;74.17;100518.47;4992182;28;20456;-49
2022/08/31 06:44:00;;;;;;;2.17;2.07;;;;;;;20.70;73.79;100519.16;4992256;28;20476;-49
2022/08/31 06:46:28;;;;;;;2.20;2.00;;;;;;;20.66;74.24;100523.88;4992307;28;20462;-49
2022/08/31 06:48:56;;;;;;;2.00;1.90;;;;;;;20.82;73.66;100523.72;4992073;28;21014;-49
2022/08/31 06:51:23;;;;;;;1.70;1.60;;;;;;;20.61;74.48;100533.28;4993249;28;20468;-49
2022/08/31 06:53:51;;;;;;;1.97;1.77;;;;;;;20.62;75.09;100526.91;4995633;28;20484;-49
2022/08/31 06:56:20;;;;;;;1.73;1.60;;;;;;;20.85;74.51;100533.47;4995863;28;20456;-51
2022/08/31 06:58:48;;;;;;;1.83;1.73;;;;;;;20.68;74.55;100537.28;4995796;28;20472;-52
2022/08/31 07:01:22;;;;;;;1.70;1.53;;;;;;;20.67;74.61;100541.81;4995590;28;20477;-51
2022/08/31 07:04:04;;;;;;;1.90;1.80;;;;;;;20.56;75.65;100543.50;4995330;28;20465;-52
2022/08/31 07:06:35;;;;;;;6.53;1.63;;;;;;;20.63;75.57;100544.84;5001013;28;20452;-51
2022/08/31 07:09:05;;;;;;;1.83;1.73;;;;;;;20.64;75.81;100547.44;4998985;28;20484;-51
2022/08/31 07:11:39;;;;;;;9.50;3.23;;;;;;;20.45;77.24;100559.56;4995557;28;20453;-51
2022/08/31 07:14:12;;;;;;;3.03;2.27;;;;;;;20.25;79.00;100553.56;4995257;28;20465;-50
2022/08/31 07:16:39;;;;;;;2.00;1.73;;;;;;;20.29;79.42;100560.53;4995269;28;20454;-49
2022/08/31 07:19:07;;;;;;;3.27;2.63;;;;;;;20.31;79.96;100555.91;4995013;28;20449;-49
2022/08/31 07:21:39;;;;;;;2.37;2.17;;;;;;;20.10;81.63;100563.53;4995454;28;20453;-51
2022/08/31 07:24:06;;;;;;;1.73;1.63;;;;;;;20.51;80.18;100562.72;4995411;28;20512;-51
2022/08/31 07:26:39;;;;;;;1.10;1.00;;;;;;;20.49;80.34;100561.09;4995155;28;20816;-50
2022/08/31 07:29:06;;;;;;;1.33;1.23;;;;;;;20.39;80.51;100571.59;4995040;28;20499;-49
2022/08/31 07:31:55;;;;;;;1.40;1.20;;;;;;;20.14;81.31;100577.69;4994842;28;20449;-50
2022/08/31 07:34:24;;;;;;;2.47;2.27;;;;;;;20.15;81.47;100575.84;4994963;28;20548;-49
2022/08/31 07:42:38;;;;;;;11.93;1.70;;;;;;;19.92;83.71;100580.88;4994932;28;20450;-49
2022/08/31 07:45:11;;;;;;;2.60;2.40;;;;;;;20.08;83.61;100578.97;4994605;28;20516;-49
2022/08/31 07:47:43;;;;;;;2.07;1.97;;;;;;;20.03;83.86;100581.09;4994673;28;20497;-50
2022/08/31 07:50:12;;;;;;;1.90;1.80;;;;;;;20.17;83.35;100587.44;4994865;28;20457;-49
2022/08/31 07:52:47;;;;;;;2.70;2.60;;;;;;;20.05;84.55;100581.00;4994366;28;20962;-50
2022/08/31 07:55:16;;;;;;;3.53;2.17;;;;;;;19.86;85.40;100580.38;4994594;28;20501;-49
2022/08/31 07:57:44;;;;;;;10.97;2.33;;;;;;;19.66;86.86;100582.50;4994515;28;20445;-49
2022/08/31 08:00:18;;;;;;;6.63;2.07;;;;;;;19.68;87.25;100579.72;4994504;28;20485;-49
2022/08/31 08:02:47;;;;;;;3.87;2.57;;;;;;;19.81;87.36;100583.38;4993380;28;20449;-49
2022/08/31 08:05:21;;;;;;;4.97;2.40;;;;;;;19.81;88.08;100584.25;4994202;28;20986;-49
2022/08/31 08:07:55;;;;;;;3.57;2.70;;;;;;;19.92;87.65;100591.69;5004274;28;21005;-49
2022/08/31 08:10:22;;;;;;;2.43;2.33;;;;;;;19.69;88.61;100590.41;4994124;28;20971;-49
2022/08/31 08:12:55;;;;;;;2.20;1.93;;;;;;;19.64;88.95;100597.06;4994189;28;20464;-49
2022/08/31 08:15:25;;;;;;;3.70;2.87;;;;;;;19.66;89.24;100585.19;4993923;28;20552;-49
2022/08/31 08:17:51;;;;;;;2.57;2.37;;;;;;;19.52;90.43;100604.88;4993969;28;20942;-50
2022/08/31 08:20:19;;;;;;;22.73;2.53;;;;;;;19.71;90.13;100591.16;4994082;28;20449;-49
2022/08/31 08:23:12;;;;;;;2.30;2.20;;;;;;;19.53;89.96;100605.75;4994019;28;20532;-49
2022/08/31 08:25:40;;;;;;;1.53;1.43;;;;;;;19.68;90.04;100606.69;4993607;28;20472;-49
2022/08/31 08:28:16;;;;;;;5.47;2.67;;;;;;;19.60;90.39;100601.78;4993893;28;20496;-49
2022/08/31 08:31:03;;;;;;;13.23;3.37;;;;;;;19.90;88.72;100609.81;4993914;28;20450;-49
2022/08/31 08:33:31;;;;;;;3.47;2.17;;;;;;;19.76;89.98;100617.88;4993552;28;20449;-49
2022/08/31 08:36:02;;;;;;;2.20;1.93;;;;;;;19.84;90.00;100618.25;4993674;28;20454;-49
2022/08/31 08:38:30;;;;;;;5.33;2.00;;;;;;;19.76;89.88;100613.34;4993469;28;20957;-49
2022/08/31 08:40:59;;;;;;;4.40;2.27;;;;;;;19.74;89.55;100612.59;4993779;28;20855;-49
2022/08/31 08:43:35;;;;;;;7.33;2.80;;;;;;;19.81;89.00;100622.03;4993484;28;20457;-49
2022/08/31 08:46:04;;;;;;;4.30;3.33;;;;;;;19.99;89.31;100616.44;4994009;28;20452;-49
2022/08/31 08:48:51;;;;;;;2.97;2.40;;;;;;;20.20;88.01;100617.81;4993422;28;20496;-50
2022/08/31 08:51:29;;;;;;;2.83;2.63;;;;;;;20.20;87.57;100628.59;4993572;28;20449;-50
2022/08/31 08:54:01;;;;;;;6.17;2.73;;;;;;;20.07;87.78;100630.34;4993744;28;20478;-51
2022/08/31 08:56:28;;;;;;;12.73;2.40;;;;;;;19.94;89.44;100632.06;4993894;28;20452;-51
2022/08/31 08:58:59;;;;;;;2.93;2.63;;;;;;;19.96;89.77;100640.94;4993151;28;20482;-52
2022/08/31 09:01:27;;;;;;;2.87;2.57;;;;;;;20.13;88.44;100633.50;4993589;28;20460;-51
2022/08/31 09:04:23;;;;;;;8.73;3.23;;;;;;;20.14;88.27;100642.47;4993474;28;20608;-51
2022/08/31 09:07:03;;;;;;;4.47;2.90;;;;;;;20.31;88.18;100636.91;4993542;28;20819;-51
2022/08/31 09:10:00;;;;;;;3.20;2.90;;;;;;;20.25;88.87;100641.81;4978918;28;20568;-51
2022/08/31 09:12:34;;;;;;;2.13;2.03;;;;;;;20.57;87.08;100643.38;4993433;28;20453;-51
2022/08/31 09:15:35;;;;;;;3.20;2.57;;;;;;;20.03;88.49;100650.41;4993113;28;20471;-50
2022/08/31 09:18:04;;;;;;;7.40;2.30;;;;;;;20.04;88.18;100646.72;4992877;28;20881;-50
2022/08/31 09:20:32;;;;;;;6.97;3.90;;;;;;;20.49;87.15;100651.09;4993002;28;20445;-51
2022/08/31 09:22:59;;;;;;;2.23;2.00;;;;;;;20.74;85.55;100650.38;4993034;28;20508;-51
2022/08/31 09:25:34;;;;;;;2.47;2.27;;;;;;;20.43;86.21;100654.19;4993007;28;20473;-50
2022/08/31 09:28:06;;;;;;;1.90;1.80;;;;;;;20.23;87.06;100647.31;4992887;28;20491;-50
2022/08/31 09:30:53;;;;;;;6.00;2.40;;;;;;;20.29;85.91;100652.34;4992846;28;20831;-51
2022/08/31 09:33:29;;;;;;;5.40;2.40;;;;;;;20.40;85.98;100651.63;4992794;28;20831;-51
2022/08/31 09:36:14;;;;;;;3.53;2.23;;;;;;;20.54;84.89;100656.19;4991656;28;20471;-49
2022/08/31 09:38:45;;;;;;;2.60;2.50;;;;;;;20.66;84.06;100650.00;4992458;28;20496;-48
2022/08/31 09:41:32;;;;;;;6.20;3.10;;;;;;;20.45;85.03;100652.25;4992528;28;20484;-49
2022/08/31 09:44:20;;;;;;;3.20;3.00;;;;;;;20.27;85.64;100651.53;4992681;28;20531;-49
2022/08/31 09:46:49;;;;;;;3.10;2.90;;;;;;;20.22;86.19;100656.38;4992630;28;20456;-49
2022/08/31 09:49:33;;;;;;;4.50;2.83;;;;;;;20.29;86.45;100652.34;4992529;28;20486;-49
2022/08/31 09:55:12;;;;;;;14.83;3.77;;;;;;;20.32;86.49;100662.06;4992593;28;20974;-49
2022/08/31 09:57:52;;;;;;;4.07;3.63;;;;;;;20.54;85.50;100658.88;4992808;28;20445;-51
2022/08/31 10:00:31;;;;;;;7.27;3.00;;;;;;;20.34;86.22;100652.03;4992833;28;20445;-51
2022/08/31 10:03:20;;;;;;;8.83;2.93;;;;;;;20.53;85.55;100651.75;4992781;28;20448;-51
2022/08/31 10:05:50;;;;;;;4.43;4.13;;;;;;;20.35;86.00;100659.16;4992293;28;20477;-51
2022/08/31 10:08:56;;;;;;;3.50;3.20;;;;;;;20.12;87.40;100652.50;4981721;28;20571;-51
2022/08/31 10:11:28;;;;;;;14.90;3.90;;;;;;;20.50;86.64;100649.25;4981890;28;20467;-50
2022/08/31 10:14:03;;;;;;;3.60;3.17;;;;;;;20.60;89.23;100650.41;4992350;28;20920;-51
2022/08/31 10:16:40;;;;;;;3.10;1.73;;;;;;;20.57;89.51;100659.59;4992814;28;20503;-51
2022/08/31 10:19:16;;;;;;;13.00;3.60;;;;;;;20.12;89.92;100655.19;4992644;28;20532;-51
2022/08/31 10:21:51;;;;;;;5.50;3.23;;;;;;;20.68;89.86;100658.88;4992344;28;20927;-51
2022/08/31 10:24:38;;;;;;;3.80;3.50;;;;;;;20.41;88.93;100654.25;4992491;28;20468;-51
2022/08/31 10:27:07;;;;;;;5.83;3.90;;;;;;;20.54;93.35;100651.66;4994834;28;20445;-51
2022/08/31 10:29:39;;;;;;;3.67;3.37;;;;;;;20.43;91.68;100651.50;4996096;28;20503;-51
2022/08/31 10:32:18;;;;;;;5.63;3.80;;;;;;;20.39;90.39;100661.56;4996107;28;20441;-51
2022/08/31 10:35:04;;;;;;;6.73;3.30;;;;;;;20.14;94.61;100655.97;4995782;28;20468;-50
2022/08/31 10:38:07;;;;;;;5.10;3.70;;;;;;;20.28;97.56;100650.56;4996464;28;20457;-50
2022/08/31 10:40:46;;;;;;;3.37;3.03;;;;;;;20.09;98.58;100650.00;4996026;28;20449;-50
2022/08/31 10:43:20;;;;;;;2.60;2.40;;;;;;;20.09;98.20;100650.88;4995681;28;20895;-51
2022/08/31 10:45:50;;;;;;;7.80;4.27;;;;;;;19.91;95.31;100646.63;4995776;28;20587;-50
2022/08/31 10:48:23;;;;;;;3.63;3.33;;;;;;;19.95;99.35;100650.00;4996218;28;20488;-51
2022/08/31 10:51:08;;;;;;;3.30;3.10;;;;;;;19.93;95.28;100651.91;4995759;28;21000;-51
2022/08/31 10:53:58;;;;;;;3.33;3.13;;;;;;;20.31;93.32;100658.50;4995530;28;20450;-51
2022/08/31 10:56:58;;;;;;;7.33;3.50;;;;;;;20.15;93.73;100651.44;4995787;28;20556;-51
2022/08/31 10:59:28;;;;;;;23.33;2.33;;;;;;;20.46;92.64;100659.41;4993828;28;20453;-52
2022/08/31 11:02:24;;;;;;;2.70;2.50;;;;;;;20.81;92.88;100656.25;4995494;28;20457;-52
2022/08/31 11:05:13;;;;;;;24.63;3.30;;;;;;;20.83;89.23;100659.69;4995240;28;20550;-51
2022/08/31 11:07:49;;;;;;;8.20;2.90;;;;;;;20.71;88.58;100656.00;5005177;28;20504;-52
2022/08/31 11:10:28;;;;;;;2.40;2.20;;;;;;;20.83;89.15;100660.59;4995381;28;20467;-51
2022/08/31 11:13:01;;;;;;;2.83;2.63;;;;;;;20.89;88.85;100662.03;4995433;28;20824;-52
2022/08/31 11:15:33;;;;;;;2.10;2.00;;;;;;;20.82;87.34;100664.25;4995329;28;20465;-51
2022/08/31 11:18:42;;;;;;;2.93;2.83;;;;;;;20.86;88.17;100659.53;4995366;28;20453;-52
2022/08/31 11:21:24;;;;;;;5.83;2.87;;;;;;;21.06;89.38;100655.50;4995330;28;20453;-51
2022/08/31 11:24:08;;;;;;;2.77;2.57;;;;;;;21.02;88.42;100648.56;4994949;28;20979;-51
2022/08/31 11:26:59;;;;;;;4.20;3.90;;;;;;;20.88;88.13;100647.66;4994940;28;20953;-52
2022/08/31 11:29:35;;;;;;;3.07;2.80;;;;;;;20.77;89.22;100647.47;4994914;28;20859;-51
2022/08/31 11:32:09;;;;;;;3.47;3.10;;;;;;;20.90;89.30;100652.94;4995065;28;20475;-52
2022/08/31 11:34:46;;;;;;;4.93;3.60;;;;;;;21.29;88.66;100647.63;4994777;28;21006;-51
2022/08/31 11:37:54;;;;;;;3.43;3.23;;;;;;;21.05;88.58;100640.25;4994637;28;20456;-51
2022/08/31 11:40:42;;;;;;;2.27;2.07;;;;;;;21.63;86.30;100647.16;4994994;28;20520;-51
2022/08/31 11:43:31;;;;;;;8.10;3.70;;;;;;;21.33;87.87;100642.00;4994848;28;20465;-51
2022/08/31 11:46:27;;;;;;;3.00;2.80;;;;;;;21.76;86.34;100635.38;4994757;28;20462;-51
2022/08/31 11:48:53;;;;;;;3.10;2.90;;;;;;;21.21;87.73;100633.72;4994450;28;20490;-51
2022/08/31 11:51:39;;;;;;;5.77;4.93;;;;;;;21.16;89.11;100627.75;4994600;28;20449;-51
2022/08/31 11:54:25;;;;;;;3.73;3.43;;;;;;;21.20;88.71;100637.38;4994589;28;20990;-49
2022/08/31 11:56:55;;;;;;;5.07;3.70;;;;;;;20.65;90.87;100637.47;4994695;28;20445;-50
2022/08/31 11:59:34;;;;;;;2.73;2.63;;;;;;;21.17;89.31;100629.47;4994466;28;20438;-51